sensor_id;sensor_type;location;lat;lon;timestamp;temperature;humidity
11501;DHT22;5807;51.606;7.624;2022-10-12T00:01:35;4.20;99.90
11501;DHT22;5807;51.606;7.624;2022-10-12T00:04:02;4.20;99.90
11501;DHT22;5807;51.606;7.624;2022-10-12T00:06:28;3.80;99.90
11501;DHT22;5807;51.606;7.624;2022-10-12T00:08:55;3.80;99.90
11501;DHT22;5807;51.606;7.624;2022-10-12T00:11:24;3.50;99.90
11501;DHT22;5807;51.606;7.624;2022-10-12T00:13:54;3.90;99.90
11501;DHT22;5807;51.606;7.624;2022-10-12T00:16:22;4.10;99.90
11501;DHT22;5807;51.606;7.624;2022-10-12T00:18:49;3.70;99.90
11501;DHT22;5807;51.606;7.624;2022-10-12T00:21:17;3.90;99.90
11501;DHT22;5807;51.606;7.624;2022-10-12T00:23:44;6.00;99.90
11501;DHT22;5807;51.606;7.624;2022-10-12T00:26:13;3.90;99.90
11501;DHT22;5807;51.606;7.624;2022-10-12T00:28:40;4.10;99.90
11501;DHT22;5807;51.606;7.624;2022-10-12T00:31:10;3.60;99.90
11501;DHT22;5807;51.606;7.624;2022-10-12T00:33:37;4.00;99.90
11501;DHT22;5807;51.606;7.624;2022-10-12T00:36:12;3.50;99.90
11501;DHT22;5807;51.606;7.624;2022-10-12T00:38:39;3.80;99.90
11501;DHT22;5807;51.606;7.624;2022-10-12T00:41:06;3.80;99.90
11501;DHT22;5807;51.606;7.624;2022-10-12T00:43:34;3.80;99.90
11501;DHT22;5807;51.606;7.624;2022-10-12T00:46:05;3.40;99.90
11501;DHT22;5807;51.606;7.624;2022-10-12T00:48:37;3.70;99.90
11501;DHT22;5807;51.606;7.624;2022-10-12T00:51:05;3.60;99.90
11501;DHT22;5807;51.606;7.624;2022-10-12T00:53:34;3.60;99.90
11501;DHT22;5807;51.606;7.624;2022-10-12T00:56:06;3.60;99.90
11501;DHT22;5807;51.606;7.624;2022-10-12T00:58:34;4.20;99.90
11501;DHT22;5807;51.606;7.624;2022-10-12T01:01:02;3.40;99.90
11501;DHT22;5807;51.606;7.624;2022-10-12T01:03:30;3.70;99.90
11501;DHT22;5807;51.606;7.624;2022-10-12T01:05:59;3.90;99.90
11501;DHT22;5807;51.606;7.624;2022-10-12T01:08:27;4.10;99.90
11501;DHT22;5807;51.606;7.624;2022-10-12T01:10:54;4.80;99.90
11501;DHT22;5807;51.606;7.624;2022-10-12T01:13:21;5.10;99.90
11501;DHT22;5807;51.606;7.624;2022-10-12T01:15:53;3.60;99.90
11501;DHT22;5807;51.606;7.624;2022-10-12T01:18:26;4.20;99.90
11501;DHT22;5807;51.606;7.624;2022-10-12T01:21:13;3.50;99.90
11501;DHT22;5807;51.606;7.624;2022-10-12T01:24:19;3.50;99.90
11501;DHT22;5807;51.606;7.624;2022-10-12T01:27:17;3.50;99.90
11501;DHT22;5807;51.606;7.624;2022-10-12T01:30:11;3.60;99.90
11501;DHT22;5807;51.606;7.624;2022-10-12T01:35:35;3.70;99.90
11501;DHT22;5807;51.606;7.624;2022-10-12T01:38:10;3.60;99.90
11501;DHT22;5807;51.606;7.624;2022-10-12T01:40:43;3.30;99.90
11501;DHT22;5807;51.606;7.624;2022-10-12T01:43:11;2.80;99.90
11501;DHT22;5807;51.606;7.624;2022-10-12T01:45:39;4.20;99.90
11501;DHT22;5807;51.606;7.624;2022-10-12T01:48:06;3.20;99.90
11501;DHT22;5807;51.606;7.624;2022-10-12T01:50:39;3.20;99.90
11501;DHT22;5807;51.606;7.624;2022-10-12T01:53:14;2.80;99.90
11501;DHT22;5807;51.606;7.624;2022-10-12T01:55:50;3.60;99.90
11501;DHT22;5807;51.606;7.624;2022-10-12T01:58:29;3.30;99.90
11501;DHT22;5807;51.606;7.624;2022-10-12T02:01:05;3.60;99.90
11501;DHT22;5807;51.606;7.624;2022-10-12T02:03:36;3.50;99.90
11501;DHT22;5807;51.606;7.624;2022-10-12T02:06:07;3.50;99.90
11501;DHT22;5807;51.606;7.624;2022-10-12T02:08:39;3.40;99.90
11501;DHT22;5807;51.606;7.624;2022-10-12T02:11:10;5.30;99.90
11501;DHT22;5807;51.606;7.624;2022-10-12T02:13:40;2.30;99.90
11501;DHT22;5807;51.606;7.624;2022-10-12T02:16:12;2.90;99.90
11501;DHT22;5807;51.606;7.624;2022-10-12T02:18:43;3.30;99.90
11501;DHT22;5807;51.606;7.624;2022-10-12T02:21:15;3.50;99.90
11501;DHT22;5807;51.606;7.624;2022-10-12T02:23:44;3.70;99.90
11501;DHT22;5807;51.606;7.624;2022-10-12T02:26:14;4.30;99.90
11501;DHT22;5807;51.606;7.624;2022-10-12T02:28:43;3.90;99.90
11501;DHT22;5807;51.606;7.624;2022-10-12T02:31:17;3.10;99.90
11501;DHT22;5807;51.606;7.624;2022-10-12T02:33:49;6.50;99.90
11501;DHT22;5807;51.606;7.624;2022-10-12T02:36:20;3.40;99.90
11501;DHT22;5807;51.606;7.624;2022-10-12T02:38:53;3.80;99.90
11501;DHT22;5807;51.606;7.624;2022-10-12T02:41:25;4.80;99.90
11501;DHT22;5807;51.606;7.624;2022-10-12T02:43:56;3.30;99.90
11501;DHT22;5807;51.606;7.624;2022-10-12T02:46:26;3.80;99.90
11501;DHT22;5807;51.606;7.624;2022-10-12T02:48:55;3.30;99.90
11501;DHT22;5807;51.606;7.624;2022-10-12T02:51:23;3.20;99.90
11501;DHT22;5807;51.606;7.624;2022-10-12T02:53:51;2.90;99.90
11501;DHT22;5807;51.606;7.624;2022-10-12T02:56:18;3.50;99.90
11501;DHT22;5807;51.606;7.624;2022-10-12T02:58:46;3.20;99.90
11501;DHT22;5807;51.606;7.624;2022-10-12T03:01:14;2.80;99.90
11501;DHT22;5807;51.606;7.624;2022-10-12T03:03:43;4.70;99.90
11501;DHT22;5807;51.606;7.624;2022-10-12T03:06:10;4.80;99.90
11501;DHT22;5807;51.606;7.624;2022-10-12T03:08:37;3.50;99.90
11501;DHT22;5807;51.606;7.624;2022-10-12T03:11:05;2.40;99.90
11501;DHT22;5807;51.606;7.624;2022-10-12T03:13:33;3.20;99.90
11501;DHT22;5807;51.606;7.624;2022-10-12T03:16:01;3.10;99.90
11501;DHT22;5807;51.606;7.624;2022-10-12T03:18:28;4.40;99.90
11501;DHT22;5807;51.606;7.624;2022-10-12T03:23:24;3.10;99.90
11501;DHT22;5807;51.606;7.624;2022-10-12T03:25:50;3.10;99.90
11501;DHT22;5807;51.606;7.624;2022-10-12T03:28:18;4.70;99.90
11501;DHT22;5807;51.606;7.624;2022-10-12T03:30:45;3.10;99.90
11501;DHT22;5807;51.606;7.624;2022-10-12T03:33:12;3.10;99.90
11501;DHT22;5807;51.606;7.624;2022-10-12T03:40:34;3.00;99.90
11501;DHT22;5807;51.606;7.624;2022-10-12T03:43:01;2.90;99.90
11501;DHT22;5807;51.606;7.624;2022-10-12T03:45:28;2.00;99.90
11501;DHT22;5807;51.606;7.624;2022-10-12T03:47:55;2.90;99.90
11501;DHT22;5807;51.606;7.624;2022-10-12T03:50:21;2.90;99.90
11501;DHT22;5807;51.606;7.624;2022-10-12T03:52:48;2.20;99.90
11501;DHT22;5807;51.606;7.624;2022-10-12T03:55:16;2.90;99.90
11501;DHT22;5807;51.606;7.624;2022-10-12T03:57:43;2.90;99.90
11501;DHT22;5807;51.606;7.624;2022-10-12T04:00:11;2.90;99.90
11501;DHT22;5807;51.606;7.624;2022-10-12T04:02:38;2.90;99.90
11501;DHT22;5807;51.606;7.624;2022-10-12T04:05:06;2.70;99.90
11501;DHT22;5807;51.606;7.624;2022-10-12T04:07:33;2.90;99.90
11501;DHT22;5807;51.606;7.624;2022-10-12T04:10:00;2.90;99.90
11501;DHT22;5807;51.606;7.624;2022-10-12T04:12:28;3.20;99.90
11501;DHT22;5807;51.606;7.624;2022-10-12T04:15:04;2.90;99.90
11501;DHT22;5807;51.606;7.624;2022-10-12T04:17:31;2.90;99.90
11501;DHT22;5807;51.606;7.624;2022-10-12T04:19:58;4.50;99.90
11501;DHT22;5807;51.606;7.624;2022-10-12T04:22:25;2.80;99.90
11501;DHT22;5807;51.606;7.624;2022-10-12T04:24:52;4.20;99.90
11501;DHT22;5807;51.606;7.624;2022-10-12T04:27:19;2.50;99.90
11501;DHT22;5807;51.606;7.624;2022-10-12T04:29:47;2.80;99.90
11501;DHT22;5807;51.606;7.624;2022-10-12T04:32:14;2.80;99.90
11501;DHT22;5807;51.606;7.624;2022-10-12T04:34:40;0.70;99.90
11501;DHT22;5807;51.606;7.624;2022-10-12T04:37:07;3.70;99.90
11501;DHT22;5807;51.606;7.624;2022-10-12T04:39:34;2.90;99.90
11501;DHT22;5807;51.606;7.624;2022-10-12T04:42:01;2.60;99.90
11501;DHT22;5807;51.606;7.624;2022-10-12T04:44:28;3.00;99.90
11501;DHT22;5807;51.606;7.624;2022-10-12T04:46:56;3.90;99.90
11501;DHT22;5807;51.606;7.624;2022-10-12T04:49:23;3.00;99.90
11501;DHT22;5807;51.606;7.624;2022-10-12T04:51:49;3.10;99.90
11501;DHT22;5807;51.606;7.624;2022-10-12T04:54:16;3.90;99.90
11501;DHT22;5807;51.606;7.624;2022-10-12T04:56:43;3.60;99.90
11501;DHT22;5807;51.606;7.624;2022-10-12T04:59:11;3.30;99.90
11501;DHT22;5807;51.606;7.624;2022-10-12T05:01:38;2.40;99.90
11501;DHT22;5807;51.606;7.624;2022-10-12T05:04:06;3.30;99.90
11501;DHT22;5807;51.606;7.624;2022-10-12T05:06:33;3.40;99.90
11501;DHT22;5807;51.606;7.624;2022-10-12T05:09:00;3.20;99.90
11501;DHT22;5807;51.606;7.624;2022-10-12T05:11:26;3.20;99.90
11501;DHT22;5807;51.606;7.624;2022-10-12T05:13:53;3.20;99.90
11501;DHT22;5807;51.606;7.624;2022-10-12T05:16:20;3.20;99.90
11501;DHT22;5807;51.606;7.624;2022-10-12T05:18:47;4.40;99.90
11501;DHT22;5807;51.606;7.624;2022-10-12T05:21:15;2.80;99.90
11501;DHT22;5807;51.606;7.624;2022-10-12T05:23:42;3.10;99.90
11501;DHT22;5807;51.606;7.624;2022-10-12T05:26:09;2.70;99.90
11501;DHT22;5807;51.606;7.624;2022-10-12T05:28:36;3.10;99.90
11501;DHT22;5807;51.606;7.624;2022-10-12T05:31:03;3.10;99.90
11501;DHT22;5807;51.606;7.624;2022-10-12T05:33:29;3.10;99.90
11501;DHT22;5807;51.606;7.624;2022-10-12T05:35:56;3.50;99.90
11501;DHT22;5807;51.606;7.624;2022-10-12T05:38:24;3.10;99.90
11501;DHT22;5807;51.606;7.624;2022-10-12T05:40:51;3.10;99.90
11501;DHT22;5807;51.606;7.624;2022-10-12T05:43:18;2.90;99.90
11501;DHT22;5807;51.606;7.624;2022-10-12T05:45:45;2.90;99.90
11501;DHT22;5807;51.606;7.624;2022-10-12T05:48:12;2.90;99.90
11501;DHT22;5807;51.606;7.624;2022-10-12T05:50:39;3.00;99.90
11501;DHT22;5807;51.606;7.624;2022-10-12T05:53:06;2.60;99.90
11501;DHT22;5807;51.606;7.624;2022-10-12T05:55:34;3.00;99.90
11501;DHT22;5807;51.606;7.624;2022-10-12T05:58:01;3.00;99.90
11501;DHT22;5807;51.606;7.624;2022-10-12T06:00:28;4.50;99.90
11501;DHT22;5807;51.606;7.624;2022-10-12T06:02:55;2.70;99.90
11501;DHT22;5807;51.606;7.624;2022-10-12T06:05:21;3.00;99.90
11501;DHT22;5807;51.606;7.624;2022-10-12T06:07:49;3.00;99.90
11501;DHT22;5807;51.606;7.624;2022-10-12T06:10:16;3.00;99.90
11501;DHT22;5807;51.606;7.624;2022-10-12T06:12:44;3.00;99.90
11501;DHT22;5807;51.606;7.624;2022-10-12T06:15:11;1.70;99.90
11501;DHT22;5807;51.606;7.624;2022-10-12T06:17:38;3.10;99.90
11501;DHT22;5807;51.606;7.624;2022-10-12T06:20:05;6.30;99.90
11501;DHT22;5807;51.606;7.624;2022-10-12T06:22:32;3.10;99.90
11501;DHT22;5807;51.606;7.624;2022-10-12T06:24:59;3.10;99.90
11501;DHT22;5807;51.606;7.624;2022-10-12T06:27:26;3.80;99.90
11501;DHT22;5807;51.606;7.624;2022-10-12T06:29:54;3.70;99.90
11501;DHT22;5807;51.606;7.624;2022-10-12T06:32:21;3.20;99.90
11501;DHT22;5807;51.606;7.624;2022-10-12T06:34:48;3.10;99.90
11501;DHT22;5807;51.606;7.624;2022-10-12T06:37:15;3.10;99.90
11501;DHT22;5807;51.606;7.624;2022-10-12T06:39:41;3.20;99.90
11501;DHT22;5807;51.606;7.624;2022-10-12T06:42:08;3.20;99.90
11501;DHT22;5807;51.606;7.624;2022-10-12T06:44:36;2.90;99.90
11501;DHT22;5807;51.606;7.624;2022-10-12T06:49:31;3.30;99.90
11501;DHT22;5807;51.606;7.624;2022-10-12T06:51:58;3.40;99.90
11501;DHT22;5807;51.606;7.624;2022-10-12T06:54:25;3.60;99.90
11501;DHT22;5807;51.606;7.624;2022-10-12T06:56:51;3.70;99.90
11501;DHT22;5807;51.606;7.624;2022-10-12T06:59:19;3.90;99.90
11501;DHT22;5807;51.606;7.624;2022-10-12T07:01:47;4.40;99.90
11501;DHT22;5807;51.606;7.624;2022-10-12T07:04:15;4.30;99.90
11501;DHT22;5807;51.606;7.624;2022-10-12T07:06:42;4.70;99.90
11501;DHT22;5807;51.606;7.624;2022-10-12T07:09:09;5.00;99.90
11501;DHT22;5807;51.606;7.624;2022-10-12T07:11:36;5.30;99.90
11501;DHT22;5807;51.606;7.624;2022-10-12T07:14:02;5.50;99.90
11501;DHT22;5807;51.606;7.624;2022-10-12T07:16:29;5.70;99.90
11501;DHT22;5807;51.606;7.624;2022-10-12T07:18:56;6.10;99.90
11501;DHT22;5807;51.606;7.624;2022-10-12T07:21:24;6.10;99.90
11501;DHT22;5807;51.606;7.624;2022-10-12T07:23:51;6.30;99.90
11501;DHT22;5807;51.606;7.624;2022-10-12T07:26:20;6.60;99.90
11501;DHT22;5807;51.606;7.624;2022-10-12T07:28:49;6.60;99.90
11501;DHT22;5807;51.606;7.624;2022-10-12T07:31:15;6.60;99.90
11501;DHT22;5807;51.606;7.624;2022-10-12T07:33:42;6.70;99.90
11501;DHT22;5807;51.606;7.624;2022-10-12T07:36:09;6.70;99.90
11501;DHT22;5807;51.606;7.624;2022-10-12T07:41:08;6.70;99.90
11501;DHT22;5807;51.606;7.624;2022-10-12T07:43:35;6.80;99.90
11501;DHT22;5807;51.606;7.624;2022-10-12T07:46:03;6.80;99.90
11501;DHT22;5807;51.606;7.624;2022-10-12T07:48:30;7.00;99.90
11501;DHT22;5807;51.606;7.624;2022-10-12T07:51:02;7.00;99.90
11501;DHT22;5807;51.606;7.624;2022-10-12T07:53:29;7.20;99.90
11501;DHT22;5807;51.606;7.624;2022-10-12T07:58:27;7.60;99.90
11501;DHT22;5807;51.606;7.624;2022-10-12T08:00:54;7.80;99.90
11501;DHT22;5807;51.606;7.624;2022-10-12T08:03:20;8.30;99.90
11501;DHT22;5807;51.606;7.624;2022-10-12T08:05:47;8.30;99.90
11501;DHT22;5807;51.606;7.624;2022-10-12T08:08:14;8.60;99.90
11501;DHT22;5807;51.606;7.624;2022-10-12T08:10:41;9.20;99.90
11501;DHT22;5807;51.606;7.624;2022-10-12T08:13:09;9.00;99.90
11501;DHT22;5807;51.606;7.624;2022-10-12T08:15:36;9.20;99.90
11501;DHT22;5807;51.606;7.624;2022-10-12T08:18:03;9.40;99.90
11501;DHT22;5807;51.606;7.624;2022-10-12T08:20:30;9.70;99.90
11501;DHT22;5807;51.606;7.624;2022-10-12T08:22:57;9.90;99.90
11501;DHT22;5807;51.606;7.624;2022-10-12T08:25:24;11.90;99.90
11501;DHT22;5807;51.606;7.624;2022-10-12T08:27:51;10.30;99.90
11501;DHT22;5807;51.606;7.624;2022-10-12T08:30:19;9.80;99.90
11501;DHT22;5807;51.606;7.624;2022-10-12T08:32:51;12.00;99.90
11501;DHT22;5807;51.606;7.624;2022-10-12T08:35:18;10.70;99.90
11501;DHT22;5807;51.606;7.624;2022-10-12T08:37:44;11.60;99.90
11501;DHT22;5807;51.606;7.624;2022-10-12T08:40:14;10.60;99.90
11501;DHT22;5807;51.606;7.624;2022-10-12T08:42:50;13.40;99.90
11501;DHT22;5807;51.606;7.624;2022-10-12T08:45:29;10.80;99.90
11501;DHT22;5807;51.606;7.624;2022-10-12T08:48:03;11.30;99.90
11501;DHT22;5807;51.606;7.624;2022-10-12T08:50:33;11.50;99.90
11501;DHT22;5807;51.606;7.624;2022-10-12T08:53:05;11.60;99.90
11501;DHT22;5807;51.606;7.624;2022-10-12T08:55:39;11.80;99.90
11501;DHT22;5807;51.606;7.624;2022-10-12T08:58:14;13.60;99.90
11501;DHT22;5807;51.606;7.624;2022-10-12T09:00:44;12.20;99.90
11501;DHT22;5807;51.606;7.624;2022-10-12T09:03:17;12.20;99.90
11501;DHT22;5807;51.606;7.624;2022-10-12T09:05:53;12.20;99.90
11501;DHT22;5807;51.606;7.624;2022-10-12T09:08:30;13.50;99.90
11501;DHT22;5807;51.606;7.624;2022-10-12T09:11:07;14.20;99.90
11501;DHT22;5807;51.606;7.624;2022-10-12T09:13:43;12.50;99.90
11501;DHT22;5807;51.606;7.624;2022-10-12T09:16:20;12.50;99.90
11501;DHT22;5807;51.606;7.624;2022-10-12T09:18:51;12.50;99.90
11501;DHT22;5807;51.606;7.624;2022-10-12T09:21:20;12.60;99.90
11501;DHT22;5807;51.606;7.624;2022-10-12T09:23:48;12.70;99.90
11501;DHT22;5807;51.606;7.624;2022-10-12T09:26:16;12.80;99.90
11501;DHT22;5807;51.606;7.624;2022-10-12T09:28:45;13.50;99.90
11501;DHT22;5807;51.606;7.624;2022-10-12T09:31:41;13.50;99.90
11501;DHT22;5807;51.606;7.624;2022-10-12T09:34:09;13.90;99.90
11501;DHT22;5807;51.606;7.624;2022-10-12T09:36:37;14.10;99.90
11501;DHT22;5807;51.606;7.624;2022-10-12T09:39:16;14.20;99.90
11501;DHT22;5807;51.606;7.624;2022-10-12T09:41:44;14.30;99.90
11501;DHT22;5807;51.606;7.624;2022-10-12T09:44:15;14.70;99.90
11501;DHT22;5807;51.606;7.624;2022-10-12T09:46:50;14.60;99.90
11501;DHT22;5807;51.606;7.624;2022-10-12T09:49:18;14.20;99.90
11501;DHT22;5807;51.606;7.624;2022-10-12T09:51:46;14.10;99.90
11501;DHT22;5807;51.606;7.624;2022-10-12T09:54:16;14.00;99.90
11501;DHT22;5807;51.606;7.624;2022-10-12T09:56:47;14.20;99.90
11501;DHT22;5807;51.606;7.624;2022-10-12T09:59:25;14.30;99.90
11501;DHT22;5807;51.606;7.624;2022-10-12T10:02:10;14.60;99.90
11501;DHT22;5807;51.606;7.624;2022-10-12T10:04:39;14.80;99.90
11501;DHT22;5807;51.606;7.624;2022-10-12T10:07:20;14.80;99.90
11501;DHT22;5807;51.606;7.624;2022-10-12T10:10:02;14.90;99.90
11501;DHT22;5807;51.606;7.624;2022-10-12T10:12:29;15.00;99.90
11501;DHT22;5807;51.606;7.624;2022-10-12T10:14:57;15.30;99.90
11501;DHT22;5807;51.606;7.624;2022-10-12T10:17:28;14.90;99.90
11501;DHT22;5807;51.606;7.624;2022-10-12T10:19:57;16.10;99.90
11501;DHT22;5807;51.606;7.624;2022-10-12T10:22:26;15.30;99.90
11501;DHT22;5807;51.606;7.624;2022-10-12T10:24:55;15.60;99.90
11501;DHT22;5807;51.606;7.624;2022-10-12T10:27:30;15.90;99.90
11501;DHT22;5807;51.606;7.624;2022-10-12T10:30:09;16.10;99.90
11501;DHT22;5807;51.606;7.624;2022-10-12T10:32:37;16.30;99.90
11501;DHT22;5807;51.606;7.624;2022-10-12T10:35:11;16.50;99.90
11501;DHT22;5807;51.606;7.624;2022-10-12T10:37:45;16.70;99.90
11501;DHT22;5807;51.606;7.624;2022-10-12T10:40:16;16.70;99.90
11501;DHT22;5807;51.606;7.624;2022-10-12T10:42:48;16.70;99.90
11501;DHT22;5807;51.606;7.624;2022-10-12T10:45:22;16.70;99.90
11501;DHT22;5807;51.606;7.624;2022-10-12T10:47:50;16.80;99.90
11501;DHT22;5807;51.606;7.624;2022-10-12T10:50:34;16.90;99.90
11501;DHT22;5807;51.606;7.624;2022-10-12T10:53:05;16.90;99.90
11501;DHT22;5807;51.606;7.624;2022-10-12T10:55:41;17.00;98.30
11501;DHT22;5807;51.606;7.624;2022-10-12T10:58:19;17.10;97.20
11501;DHT22;5807;51.606;7.624;2022-10-12T11:00:48;17.00;96.50
11501;DHT22;5807;51.606;7.624;2022-10-12T11:03:21;17.10;97.30
11501;DHT22;5807;51.606;7.624;2022-10-12T11:05:53;17.10;95.50
11501;DHT22;5807;51.606;7.624;2022-10-12T11:08:24;17.20;98.00
11501;DHT22;5807;51.606;7.624;2022-10-12T11:10:55;16.90;96.20
11501;DHT22;5807;51.606;7.624;2022-10-12T11:13:27;16.90;96.40
11501;DHT22;5807;51.606;7.624;2022-10-12T11:16:00;17.00;96.10
11501;DHT22;5807;51.606;7.624;2022-10-12T11:18:35;17.00;94.60
11501;DHT22;5807;51.606;7.624;2022-10-12T11:21:07;16.90;94.80
11501;DHT22;5807;51.606;7.624;2022-10-12T11:23:41;17.10;96.60
11501;DHT22;5807;51.606;7.624;2022-10-12T11:26:15;17.30;95.60
11501;DHT22;5807;51.606;7.624;2022-10-12T11:28:43;17.10;95.60
11501;DHT22;5807;51.606;7.624;2022-10-12T11:31:17;17.10;96.10
11501;DHT22;5807;51.606;7.624;2022-10-12T11:33:47;17.10;95.30
11501;DHT22;5807;51.606;7.624;2022-10-12T11:36:17;17.30;94.80
11501;DHT22;5807;51.606;7.624;2022-10-12T11:38:48;17.50;95.30
11501;DHT22;5807;51.606;7.624;2022-10-12T11:41:19;17.60;95.20
11501;DHT22;5807;51.606;7.624;2022-10-12T11:43:51;17.60;94.80
11501;DHT22;5807;51.606;7.624;2022-10-12T11:46:22;17.50;94.00
11501;DHT22;5807;51.606;7.624;2022-10-12T11:48:58;17.30;94.40
11501;DHT22;5807;51.606;7.624;2022-10-12T11:51:25;17.40;93.70
11501;DHT22;5807;51.606;7.624;2022-10-12T11:53:58;17.40;92.30
11501;DHT22;5807;51.606;7.624;2022-10-12T11:56:29;17.30;93.50
11501;DHT22;5807;51.606;7.624;2022-10-12T11:59:00;17.50;93.90
11501;DHT22;5807;51.606;7.624;2022-10-12T12:01:37;17.90;94.50
11501;DHT22;5807;51.606;7.624;2022-10-12T12:04:23;18.20;93.10
11501;DHT22;5807;51.606;7.624;2022-10-12T12:07:02;18.20;92.60
11501;DHT22;5807;51.606;7.624;2022-10-12T12:09:35;18.30;92.90
11501;DHT22;5807;51.606;7.624;2022-10-12T12:12:19;18.40;92.70
11501;DHT22;5807;51.606;7.624;2022-10-12T12:15:09;18.60;92.10
11501;DHT22;5807;51.606;7.624;2022-10-12T12:18:03;18.60;91.60
11501;DHT22;5807;51.606;7.624;2022-10-12T12:21:02;18.60;90.90
11501;DHT22;5807;51.606;7.624;2022-10-12T12:23:36;18.50;90.20
11501;DHT22;5807;51.606;7.624;2022-10-12T12:26:15;18.70;92.00
11501;DHT22;5807;51.606;7.624;2022-10-12T12:28:44;18.70;90.30
11501;DHT22;5807;51.606;7.624;2022-10-12T12:31:14;18.70;91.40
11501;DHT22;5807;51.606;7.624;2022-10-12T12:33:44;18.70;89.90
11501;DHT22;5807;51.606;7.624;2022-10-12T12:36:26;18.90;91.00
11501;DHT22;5807;51.606;7.624;2022-10-12T12:38:54;19.30;89.80
11501;DHT22;5807;51.606;7.624;2022-10-12T12:41:24;18.90;91.00
11501;DHT22;5807;51.606;7.624;2022-10-12T12:43:58;19.30;90.20
11501;DHT22;5807;51.606;7.624;2022-10-12T12:49:41;18.90;90.40
11501;DHT22;5807;51.606;7.624;2022-10-12T12:52:17;18.80;89.10
11501;DHT22;5807;51.606;7.624;2022-10-12T12:57:59;18.30;88.30
11501;DHT22;5807;51.606;7.624;2022-10-12T13:00:35;18.10;93.60
11501;DHT22;5807;51.606;7.624;2022-10-12T13:03:23;17.90;92.40
11501;DHT22;5807;51.606;7.624;2022-10-12T13:06:13;17.50;94.70
11501;DHT22;5807;51.606;7.624;2022-10-12T13:09:00;17.00;93.00
11501;DHT22;5807;51.606;7.624;2022-10-12T13:11:43;17.00;93.10
11501;DHT22;5807;51.606;7.624;2022-10-12T13:14:42;16.90;94.50
11501;DHT22;5807;51.606;7.624;2022-10-12T13:17:27;16.90;93.60
11501;DHT22;5807;51.606;7.624;2022-10-12T13:20:10;16.80;94.80
11501;DHT22;5807;51.606;7.624;2022-10-12T13:22:41;17.00;95.00
11501;DHT22;5807;51.606;7.624;2022-10-12T13:25:16;18.00;94.30
11501;DHT22;5807;51.606;7.624;2022-10-12T13:27:46;18.20;93.40
11501;DHT22;5807;51.606;7.624;2022-10-12T13:30:20;17.90;93.20
11501;DHT22;5807;51.606;7.624;2022-10-12T13:32:52;18.10;93.40
11501;DHT22;5807;51.606;7.624;2022-10-12T13:35:28;18.10;93.50
11501;DHT22;5807;51.606;7.624;2022-10-12T13:38:00;18.10;92.70
11501;DHT22;5807;51.606;7.624;2022-10-12T13:40:32;18.10;92.60
11501;DHT22;5807;51.606;7.624;2022-10-12T13:43:26;18.20;92.60
11501;DHT22;5807;51.606;7.624;2022-10-12T13:45:53;18.50;92.80
11501;DHT22;5807;51.606;7.624;2022-10-12T13:48:22;18.60;93.30
11501;DHT22;5807;51.606;7.624;2022-10-12T13:50:51;18.90;93.50
11501;DHT22;5807;51.606;7.624;2022-10-12T13:53:18;19.30;93.70
11501;DHT22;5807;51.606;7.624;2022-10-12T13:55:54;16.80;91.60
11501;DHT22;5807;51.606;7.624;2022-10-12T13:58:25;17.90;92.80
11501;DHT22;5807;51.606;7.624;2022-10-12T14:00:53;18.00;93.30
11501;DHT22;5807;51.606;7.624;2022-10-12T14:03:24;17.60;94.10
11501;DHT22;5807;51.606;7.624;2022-10-12T14:05:51;17.60;93.60
11501;DHT22;5807;51.606;7.624;2022-10-12T14:08:23;17.90;95.90
11501;DHT22;5807;51.606;7.624;2022-10-12T14:10:52;17.10;95.00
11501;DHT22;5807;51.606;7.624;2022-10-12T14:13:24;16.90;95.10
11501;DHT22;5807;51.606;7.624;2022-10-12T14:15:52;17.60;96.90
11501;DHT22;5807;51.606;7.624;2022-10-12T14:18:34;16.60;96.00
11501;DHT22;5807;51.606;7.624;2022-10-12T14:21:21;16.40;96.10
11501;DHT22;5807;51.606;7.624;2022-10-12T14:23:50;16.50;97.20
11501;DHT22;5807;51.606;7.624;2022-10-12T14:26:26;16.40;97.90
11501;DHT22;5807;51.606;7.624;2022-10-12T14:28:54;16.10;97.80
11501;DHT22;5807;51.606;7.624;2022-10-12T14:31:47;16.00;97.60
11501;DHT22;5807;51.606;7.624;2022-10-12T14:34:38;15.90;99.60
11501;DHT22;5807;51.606;7.624;2022-10-12T14:37:20;16.50;99.90
11501;DHT22;5807;51.606;7.624;2022-10-12T14:39:49;15.90;99.90
11501;DHT22;5807;51.606;7.624;2022-10-12T14:42:25;15.90;99.90
11501;DHT22;5807;51.606;7.624;2022-10-12T14:44:53;16.00;99.90
11501;DHT22;5807;51.606;7.624;2022-10-12T14:47:21;16.10;99.90
11501;DHT22;5807;51.606;7.624;2022-10-12T14:49:49;16.10;99.90
11501;DHT22;5807;51.606;7.624;2022-10-12T14:52:19;16.10;99.90
11501;DHT22;5807;51.606;7.624;2022-10-12T14:54:50;16.10;99.90
11501;DHT22;5807;51.606;7.624;2022-10-12T14:57:18;16.20;99.90
11501;DHT22;5807;51.606;7.624;2022-10-12T14:59:46;16.10;99.90
11501;DHT22;5807;51.606;7.624;2022-10-12T15:02:18;16.10;99.90
11501;DHT22;5807;51.606;7.624;2022-10-12T15:04:45;16.00;99.90
11501;DHT22;5807;51.606;7.624;2022-10-12T15:07:14;16.00;99.90
11501;DHT22;5807;51.606;7.624;2022-10-12T15:09:42;16.80;99.90
11501;DHT22;5807;51.606;7.624;2022-10-12T15:12:11;16.10;99.90
11501;DHT22;5807;51.606;7.624;2022-10-12T15:14:38;16.00;99.90
11501;DHT22;5807;51.606;7.624;2022-10-12T15:17:09;16.20;99.90
11501;DHT22;5807;51.606;7.624;2022-10-12T15:19:36;16.10;99.90
11501;DHT22;5807;51.606;7.624;2022-10-12T15:22:03;17.10;99.90
11501;DHT22;5807;51.606;7.624;2022-10-12T15:24:30;16.10;99.90
11501;DHT22;5807;51.606;7.624;2022-10-12T15:26:57;16.10;99.90
11501;DHT22;5807;51.606;7.624;2022-10-12T15:29:24;16.00;99.90
11501;DHT22;5807;51.606;7.624;2022-10-12T15:31:50;15.90;99.90
11501;DHT22;5807;51.606;7.624;2022-10-12T15:34:19;15.70;99.90
11501;DHT22;5807;51.606;7.624;2022-10-12T15:36:45;15.80;99.90
11501;DHT22;5807;51.606;7.624;2022-10-12T15:39:14;15.80;99.90
11501;DHT22;5807;51.606;7.624;2022-10-12T15:41:40;15.80;99.90
11501;DHT22;5807;51.606;7.624;2022-10-12T15:44:09;15.70;99.90
11501;DHT22;5807;51.606;7.624;2022-10-12T15:46:36;15.60;99.90
11501;DHT22;5807;51.606;7.624;2022-10-12T15:49:03;15.50;99.90
11501;DHT22;5807;51.606;7.624;2022-10-12T15:51:32;15.40;99.90
11501;DHT22;5807;51.606;7.624;2022-10-12T15:54:02;15.40;99.90
11501;DHT22;5807;51.606;7.624;2022-10-12T15:56:29;15.30;99.90
11501;DHT22;5807;51.606;7.624;2022-10-12T15:58:56;15.30;99.90
11501;DHT22;5807;51.606;7.624;2022-10-12T16:01:22;15.10;99.90
11501;DHT22;5807;51.606;7.624;2022-10-12T16:03:49;15.00;99.90
11501;DHT22;5807;51.606;7.624;2022-10-12T16:06:16;14.80;99.90
11501;DHT22;5807;51.606;7.624;2022-10-12T16:08:44;14.50;99.90
11501;DHT22;5807;51.606;7.624;2022-10-12T16:11:13;14.70;99.90
11501;DHT22;5807;51.606;7.624;2022-10-12T16:13:40;14.50;99.90
11501;DHT22;5807;51.606;7.624;2022-10-12T16:16:08;14.60;99.90
11501;DHT22;5807;51.606;7.624;2022-10-12T16:18:35;14.50;99.90
11501;DHT22;5807;51.606;7.624;2022-10-12T16:21:02;14.50;99.90
11501;DHT22;5807;51.606;7.624;2022-10-12T16:23:31;14.40;99.90
11501;DHT22;5807;51.606;7.624;2022-10-12T16:26:01;14.30;99.90
11501;DHT22;5807;51.606;7.624;2022-10-12T16:28:29;14.40;99.90
11501;DHT22;5807;51.606;7.624;2022-10-12T16:30:56;14.10;99.90
11501;DHT22;5807;51.606;7.624;2022-10-12T16:33:23;14.00;99.90
11501;DHT22;5807;51.606;7.624;2022-10-12T16:35:49;14.10;99.90
11501;DHT22;5807;51.606;7.624;2022-10-12T16:38:16;14.10;99.90
11501;DHT22;5807;51.606;7.624;2022-10-12T16:40:45;14.10;99.90